sensor_id;sensor_type;location;lat;lon;timestamp;P1;durP1;ratioP1;P2;durP2;ratioP2
60026;SDS011;45891;53.006;6.512;2022-09-01T00:01:10;8.27;;;1.83;;
60026;SDS011;45891;53.006;6.512;2022-09-01T00:03:43;8.13;;;2.00;;
60026;SDS011;45891;53.006;6.512;2022-09-01T00:06:15;7.25;;;1.88;;
60026;SDS011;45891;53.006;6.512;2022-09-01T00:08:47;7.18;;;1.83;;
60026;SDS011;45891;53.006;6.512;2022-09-01T00:11:22;8.80;;;1.90;;
60026;SDS011;45891;53.006;6.512;2022-09-01T00:13:51;7.95;;;1.98;;
60026;SDS011;45891;53.006;6.512;2022-09-01T00:16:18;7.60;;;1.73;;
60026;SDS011;45891;53.006;6.512;2022-09-01T00:18:46;8.18;;;1.85;;
60026;SDS011;45891;53.006;6.512;2022-09-01T00:21:16;7.07;;;2.00;;
60026;SDS011;45891;53.006;6.512;2022-09-01T00:23:44;7.82;;;2.03;;
60026;SDS011;45891;53.006;6.512;2022-09-01T00:26:11;7.55;;;1.80;;
60026;SDS011;45891;53.006;6.512;2022-09-01T00:28:37;7.13;;;1.80;;
60026;SDS011;45891;53.006;6.512;2022-09-01T00:31:04;6.65;;;1.75;;
60026;SDS011;45891;53.006;6.512;2022-09-01T00:33:32;7.10;;;1.73;;
60026;SDS011;45891;53.006;6.512;2022-09-01T00:36:00;8.00;;;1.60;;
60026;SDS011;45891;53.006;6.512;2022-09-01T00:38:27;8.80;;;1.77;;
60026;SDS011;45891;53.006;6.512;2022-09-01T00:40:53;6.78;;;1.70;;
60026;SDS011;45891;53.006;6.512;2022-09-01T00:43:21;6.93;;;1.70;;
60026;SDS011;45891;53.006;6.512;2022-09-01T00:46:13;7.35;;;1.65;;
60026;SDS011;45891;53.006;6.512;2022-09-01T00:48:52;8.05;;;1.55;;
60026;SDS011;45891;53.006;6.512;2022-09-01T00:51:25;7.28;;;1.48;;
60026;SDS011;45891;53.006;6.512;2022-09-01T00:53:53;6.90;;;1.55;;
60026;SDS011;45891;53.006;6.512;2022-09-01T00:56:20;6.13;;;1.50;;
60026;SDS011;45891;53.006;6.512;2022-09-01T00:58:48;6.93;;;1.73;;
60026;SDS011;45891;53.006;6.512;2022-09-01T01:01:16;7.93;;;1.73;;
60026;SDS011;45891;53.006;6.512;2022-09-01T01:03:42;7.45;;;1.70;;
60026;SDS011;45891;53.006;6.512;2022-09-01T01:06:12;7.90;;;1.40;;
60026;SDS011;45891;53.006;6.512;2022-09-01T01:08:45;6.15;;;1.55;;
60026;SDS011;45891;53.006;6.512;2022-09-01T01:11:24;5.38;;;1.55;;
60026;SDS011;45891;53.006;6.512;2022-09-01T01:13:54;6.50;;;1.60;;
60026;SDS011;45891;53.006;6.512;2022-09-01T01:16:24;7.60;;;1.60;;
60026;SDS011;45891;53.006;6.512;2022-09-01T01:18:52;8.40;;;1.52;;
60026;SDS011;45891;53.006;6.512;2022-09-01T01:21:21;7.97;;;1.58;;
60026;SDS011;45891;53.006;6.512;2022-09-01T01:26:49;6.18;;;1.63;;
60026;SDS011;45891;53.006;6.512;2022-09-01T01:29:16;7.40;;;1.50;;
60026;SDS011;45891;53.006;6.512;2022-09-01T01:31:43;6.35;;;1.73;;
60026;SDS011;45891;53.006;6.512;2022-09-01T01:34:12;8.20;;;1.73;;
60026;SDS011;45891;53.006;6.512;2022-09-01T01:36:39;5.10;;;1.27;;
60026;SDS011;45891;53.006;6.512;2022-09-01T01:39:16;5.63;;;1.50;;
60026;SDS011;45891;53.006;6.512;2022-09-01T01:41:44;5.63;;;1.48;;
60026;SDS011;45891;53.006;6.512;2022-09-01T01:44:14;6.10;;;1.60;;
60026;SDS011;45891;53.006;6.512;2022-09-01T01:46:50;6.55;;;1.48;;
60026;SDS011;45891;53.006;6.512;2022-09-01T01:49:20;5.32;;;1.38;;
60026;SDS011;45891;53.006;6.512;2022-09-01T01:51:48;5.35;;;1.30;;
60026;SDS011;45891;53.006;6.512;2022-09-01T01:54:18;8.55;;;1.63;;
60026;SDS011;45891;53.006;6.512;2022-09-01T01:56:44;5.72;;;1.42;;
60026;SDS011;45891;53.006;6.512;2022-09-01T01:59:10;5.53;;;1.70;;
60026;SDS011;45891;53.006;6.512;2022-09-01T02:01:39;6.45;;;1.50;;
60026;SDS011;45891;53.006;6.512;2022-09-01T02:04:07;5.88;;;1.70;;
60026;SDS011;45891;53.006;6.512;2022-09-01T02:06:36;6.75;;;1.85;;
60026;SDS011;45891;53.006;6.512;2022-09-01T02:09:06;9.43;;;1.52;;
60026;SDS011;45891;53.006;6.512;2022-09-01T02:11:33;5.55;;;1.50;;
60026;SDS011;45891;53.006;6.512;2022-09-01T02:14:03;6.15;;;1.42;;
60026;SDS011;45891;53.006;6.512;2022-09-01T02:16:31;7.25;;;1.70;;
60026;SDS011;45891;53.006;6.512;2022-09-01T02:18:59;5.32;;;1.50;;
60026;SDS011;45891;53.006;6.512;2022-09-01T02:21:27;6.35;;;1.50;;
60026;SDS011;45891;53.006;6.512;2022-09-01T02:23:55;7.00;;;1.70;;
60026;SDS011;45891;53.006;6.512;2022-09-01T02:26:27;6.50;;;1.65;;
60026;SDS011;45891;53.006;6.512;2022-09-01T02:28:56;6.07;;;1.65;;
60026;SDS011;45891;53.006;6.512;2022-09-01T02:31:32;5.85;;;1.65;;
60026;SDS011;45891;53.006;6.512;2022-09-01T02:34:00;5.40;;;1.25;;
60026;SDS011;45891;53.006;6.512;2022-09-01T02:36:28;6.15;;;1.50;;
60026;SDS011;45891;53.006;6.512;2022-09-01T02:38:57;9.30;;;1.60;;
60026;SDS011;45891;53.006;6.512;2022-09-01T02:41:23;7.07;;;1.63;;
60026;SDS011;45891;53.006;6.512;2022-09-01T02:43:53;8.20;;;1.70;;
60026;SDS011;45891;53.006;6.512;2022-09-01T02:46:19;6.70;;;1.65;;
60026;SDS011;45891;53.006;6.512;2022-09-01T02:48:47;6.40;;;1.42;;
60026;SDS011;45891;53.006;6.512;2022-09-01T02:51:16;6.78;;;1.73;;
60026;SDS011;45891;53.006;6.512;2022-09-01T02:53:44;5.93;;;1.58;;
60026;SDS011;45891;53.006;6.512;2022-09-01T02:56:18;7.75;;;1.60;;
60026;SDS011;45891;53.006;6.512;2022-09-01T02:58:47;9.30;;;1.70;;
60026;SDS011;45891;53.006;6.512;2022-09-01T03:01:21;6.55;;;1.55;;
60026;SDS011;45891;53.006;6.512;2022-09-01T03:03:50;6.85;;;1.83;;
60026;SDS011;45891;53.006;6.512;2022-09-01T03:06:20;9.23;;;1.80;;
60026;SDS011;45891;53.006;6.512;2022-09-01T03:08:49;7.20;;;1.65;;
60026;SDS011;45891;53.006;6.512;2022-09-01T03:11:16;7.32;;;1.73;;
60026;SDS011;45891;53.006;6.512;2022-09-01T03:13:43;7.53;;;1.63;;
60026;SDS011;45891;53.006;6.512;2022-09-01T03:16:09;5.90;;;1.50;;
60026;SDS011;45891;53.006;6.512;2022-09-01T03:18:36;7.28;;;1.63;;
60026;SDS011;45891;53.006;6.512;2022-09-01T03:21:03;6.95;;;1.75;;
60026;SDS011;45891;53.006;6.512;2022-09-01T03:23:30;6.30;;;1.60;;
60026;SDS011;45891;53.006;6.512;2022-09-01T03:25:58;8.55;;;1.73;;
60026;SDS011;45891;53.006;6.512;2022-09-01T03:28:25;6.05;;;1.70;;
60026;SDS011;45891;53.006;6.512;2022-09-01T03:30:54;6.45;;;1.80;;
60026;SDS011;45891;53.006;6.512;2022-09-01T03:33:22;9.68;;;1.73;;
60026;SDS011;45891;53.006;6.512;2022-09-01T03:35:50;8.10;;;2.00;;
60026;SDS011;45891;53.006;6.512;2022-09-01T03:38:16;7.90;;;1.95;;
60026;SDS011;45891;53.006;6.512;2022-09-01T03:40:58;5.93;;;1.75;;
60026;SDS011;45891;53.006;6.512;2022-09-01T03:43:27;5.53;;;1.60;;
60026;SDS011;45891;53.006;6.512;2022-09-01T03:45:54;12.30;;;1.90;;
60026;SDS011;45891;53.006;6.512;2022-09-01T03:48:25;6.45;;;1.60;;
60026;SDS011;45891;53.006;6.512;2022-09-01T03:50:54;6.50;;;1.65;;
60026;SDS011;45891;53.006;6.512;2022-09-01T03:53:26;6.50;;;1.50;;
60026;SDS011;45891;53.006;6.512;2022-09-01T03:55:53;6.35;;;1.77;;
60026;SDS011;45891;53.006;6.512;2022-09-01T03:58:20;7.50;;;1.70;;
60026;SDS011;45891;53.006;6.512;2022-09-01T04:00:48;7.15;;;1.70;;
60026;SDS011;45891;53.006;6.512;2022-09-01T04:03:20;7.47;;;1.90;;
60026;SDS011;45891;53.006;6.512;2022-09-01T04:05:48;7.20;;;1.88;;
60026;SDS011;45891;53.006;6.512;2022-09-01T04:08:17;9.13;;;1.92;;
60026;SDS011;45891;53.006;6.512;2022-09-01T04:10:46;6.68;;;1.85;;
60026;SDS011;45891;53.006;6.512;2022-09-01T04:13:19;6.30;;;1.60;;
60026;SDS011;45891;53.006;6.512;2022-09-01T04:15:52;7.32;;;1.73;;
60026;SDS011;45891;53.006;6.512;2022-09-01T04:18:18;6.93;;;1.85;;
60026;SDS011;45891;53.006;6.512;2022-09-01T04:20:49;7.68;;;1.80;;
60026;SDS011;45891;53.006;6.512;2022-09-01T04:25:48;5.97;;;1.70;;
60026;SDS011;45891;53.006;6.512;2022-09-01T04:28:16;6.60;;;1.90;;
60026;SDS011;45891;53.006;6.512;2022-09-01T04:30:51;6.50;;;1.90;;
60026;SDS011;45891;53.006;6.512;2022-09-01T04:33:21;6.90;;;1.90;;
60026;SDS011;45891;53.006;6.512;2022-09-01T04:35:49;6.97;;;1.90;;
60026;SDS011;45891;53.006;6.512;2022-09-01T04:38:16;7.25;;;2.00;;
60026;SDS011;45891;53.006;6.512;2022-09-01T04:40:42;7.63;;;1.85;;
60026;SDS011;45891;53.006;6.512;2022-09-01T04:43:09;7.43;;;2.25;;
60026;SDS011;45891;53.006;6.512;2022-09-01T04:45:36;6.38;;;1.80;;
60026;SDS011;45891;53.006;6.512;2022-09-01T04:48:03;7.72;;;1.80;;
60026;SDS011;45891;53.006;6.512;2022-09-01T04:50:30;6.15;;;1.73;;
60026;SDS011;45891;53.006;6.512;2022-09-01T04:52:57;7.30;;;1.80;;
60026;SDS011;45891;53.006;6.512;2022-09-01T04:55:27;9.38;;;1.85;;
60026;SDS011;45891;53.006;6.512;2022-09-01T04:57:55;6.57;;;1.90;;
60026;SDS011;45891;53.006;6.512;2022-09-01T05:00:24;6.25;;;1.90;;
60026;SDS011;45891;53.006;6.512;2022-09-01T05:02:56;6.25;;;2.00;;
60026;SDS011;45891;53.006;6.512;2022-09-01T05:05:38;7.35;;;2.00;;
60026;SDS011;45891;53.006;6.512;2022-09-01T05:08:11;7.00;;;1.90;;
60026;SDS011;45891;53.006;6.512;2022-09-01T05:10:44;6.15;;;1.90;;
60026;SDS011;45891;53.006;6.512;2022-09-01T05:13:14;9.57;;;2.15;;
60026;SDS011;45891;53.006;6.512;2022-09-01T05:15:42;6.72;;;2.10;;
60026;SDS011;45891;53.006;6.512;2022-09-01T05:18:17;6.80;;;2.05;;
60026;SDS011;45891;53.006;6.512;2022-09-01T05:20:50;5.85;;;1.80;;
60026;SDS011;45891;53.006;6.512;2022-09-01T05:23:17;6.00;;;1.80;;
60026;SDS011;45891;53.006;6.512;2022-09-01T05:25:45;7.28;;;2.28;;
60026;SDS011;45891;53.006;6.512;2022-09-01T05:28:17;6.05;;;1.92;;
60026;SDS011;45891;53.006;6.512;2022-09-01T05:30:45;7.77;;;2.00;;
60026;SDS011;45891;53.006;6.512;2022-09-01T05:33:12;8.15;;;2.10;;
60026;SDS011;45891;53.006;6.512;2022-09-01T05:35:41;6.75;;;2.00;;
60026;SDS011;45891;53.006;6.512;2022-09-01T05:38:16;6.57;;;2.00;;
60026;SDS011;45891;53.006;6.512;2022-09-01T05:40:43;8.20;;;2.17;;
60026;SDS011;45891;53.006;6.512;2022-09-01T05:43:10;8.98;;;2.42;;
60026;SDS011;45891;53.006;6.512;2022-09-01T05:45:38;6.53;;;1.90;;
60026;SDS011;45891;53.006;6.512;2022-09-01T05:48:11;6.10;;;1.73;;
60026;SDS011;45891;53.006;6.512;2022-09-01T05:53:09;7.07;;;2.00;;
60026;SDS011;45891;53.006;6.512;2022-09-01T05:55:41;6.55;;;1.95;;
60026;SDS011;45891;53.006;6.512;2022-09-01T05:58:12;9.75;;;1.95;;
60026;SDS011;45891;53.006;6.512;2022-09-01T06:00:41;6.63;;;2.00;;
60026;SDS011;45891;53.006;6.512;2022-09-01T06:03:09;7.75;;;2.15;;
60026;SDS011;45891;53.006;6.512;2022-09-01T06:05:36;7.22;;;2.30;;
60026;SDS011;45891;53.006;6.512;2022-09-01T06:08:03;6.65;;;2.00;;
60026;SDS011;45891;53.006;6.512;2022-09-01T06:10:30;7.22;;;2.05;;
60026;SDS011;45891;53.006;6.512;2022-09-01T06:12:58;8.90;;;2.30;;
60026;SDS011;45891;53.006;6.512;2022-09-01T06:15:29;7.22;;;2.00;;
60026;SDS011;45891;53.006;6.512;2022-09-01T06:17:57;6.60;;;2.13;;
60026;SDS011;45891;53.006;6.512;2022-09-01T06:20:25;6.32;;;1.92;;
60026;SDS011;45891;53.006;6.512;2022-09-01T06:22:52;7.10;;;1.85;;
60026;SDS011;45891;53.006;6.512;2022-09-01T06:25:18;6.57;;;1.88;;
60026;SDS011;45891;53.006;6.512;2022-09-01T06:27:45;6.72;;;1.92;;
60026;SDS011;45891;53.006;6.512;2022-09-01T06:30:13;8.07;;;1.93;;
60026;SDS011;45891;53.006;6.512;2022-09-01T06:32:45;7.88;;;1.95;;
60026;SDS011;45891;53.006;6.512;2022-09-01T06:35:12;7.40;;;2.10;;
60026;SDS011;45891;53.006;6.512;2022-09-01T06:37:40;7.93;;;1.98;;
60026;SDS011;45891;53.006;6.512;2022-09-01T06:40:09;6.47;;;1.88;;
60026;SDS011;45891;53.006;6.512;2022-09-01T06:42:42;5.90;;;1.70;;
60026;SDS011;45891;53.006;6.512;2022-09-01T06:45:14;6.75;;;1.70;;
60026;SDS011;45891;53.006;6.512;2022-09-01T06:47:42;5.85;;;1.50;;
60026;SDS011;45891;53.006;6.512;2022-09-01T06:50:10;8.47;;;1.60;;
60026;SDS011;45891;53.006;6.512;2022-09-01T06:52:42;8.75;;;1.70;;
60026;SDS011;45891;53.006;6.512;2022-09-01T06:55:09;5.20;;;1.52;;
60026;SDS011;45891;53.006;6.512;2022-09-01T06:57:37;5.90;;;1.60;;
60026;SDS011;45891;53.006;6.512;2022-09-01T07:00:06;6.50;;;1.50;;
60026;SDS011;45891;53.006;6.512;2022-09-01T07:02:46;8.13;;;1.65;;
60026;SDS011;45891;53.006;6.512;2022-09-01T07:05:17;5.63;;;1.45;;
60026;SDS011;45891;53.006;6.512;2022-09-01T07:07:48;5.85;;;1.50;;
60026;SDS011;45891;53.006;6.512;2022-09-01T07:10:20;5.60;;;1.30;;
60026;SDS011;45891;53.006;6.512;2022-09-01T07:12:51;7.97;;;1.80;;
60026;SDS011;45891;53.006;6.512;2022-09-01T07:15:20;6.78;;;1.60;;
60026;SDS011;45891;53.006;6.512;2022-09-01T07:17:51;6.18;;;1.48;;
60026;SDS011;45891;53.006;6.512;2022-09-01T07:20:21;4.63;;;1.40;;
60026;SDS011;45891;53.006;6.512;2022-09-01T07:22:49;9.10;;;1.70;;
60026;SDS011;45891;53.006;6.512;2022-09-01T07:25:16;6.55;;;1.55;;
60026;SDS011;45891;53.006;6.512;2022-09-01T07:27:44;6.03;;;1.55;;
60026;SDS011;45891;53.006;6.512;2022-09-01T07:30:15;6.55;;;1.63;;
60026;SDS011;45891;53.006;6.512;2022-09-01T07:32:43;6.22;;;1.52;;
60026;SDS011;45891;53.006;6.512;2022-09-01T07:35:11;5.10;;;1.40;;
60026;SDS011;45891;53.006;6.512;2022-09-01T07:37:38;7.57;;;1.67;;
60026;SDS011;45891;53.006;6.512;2022-09-01T07:40:04;7.30;;;1.50;;
60026;SDS011;45891;53.006;6.512;2022-09-01T07:42:32;6.25;;;1.48;;
60026;SDS011;45891;53.006;6.512;2022-09-01T07:44:59;10.90;;;1.42;;
60026;SDS011;45891;53.006;6.512;2022-09-01T07:47:25;5.72;;;1.42;;
60026;SDS011;45891;53.006;6.512;2022-09-01T07:49:54;5.28;;;1.45;;
60026;SDS011;45891;53.006;6.512;2022-09-01T07:52:20;7.50;;;1.40;;
60026;SDS011;45891;53.006;6.512;2022-09-01T07:54:46;5.50;;;1.27;;
60026;SDS011;45891;53.006;6.512;2022-09-01T07:57:12;7.82;;;1.60;;
60026;SDS011;45891;53.006;6.512;2022-09-01T07:59:39;6.28;;;1.30;;
60026;SDS011;45891;53.006;6.512;2022-09-01T08:02:07;6.53;;;1.50;;
60026;SDS011;45891;53.006;6.512;2022-09-01T08:04:34;6.72;;;1.35;;
60026;SDS011;45891;53.006;6.512;2022-09-01T08:07:04;7.87;;;1.47;;
60026;SDS011;45891;53.006;6.512;2022-09-01T08:09:30;7.72;;;1.50;;
60026;SDS011;45891;53.006;6.512;2022-09-01T08:11:56;7.03;;;1.50;;
60026;SDS011;45891;53.006;6.512;2022-09-01T08:14:22;6.50;;;1.65;;
60026;SDS011;45891;53.006;6.512;2022-09-01T08:16:48;6.90;;;1.50;;
60026;SDS011;45891;53.006;6.512;2022-09-01T08:19:14;6.57;;;1.50;;
60026;SDS011;45891;53.006;6.512;2022-09-01T08:21:42;6.78;;;1.27;;
60026;SDS011;45891;53.006;6.512;2022-09-01T08:24:09;5.40;;;1.30;;
60026;SDS011;45891;53.006;6.512;2022-09-01T08:26:35;7.40;;;1.40;;
60026;SDS011;45891;53.006;6.512;2022-09-01T08:29:01;7.75;;;1.27;;
60026;SDS011;45891;53.006;6.512;2022-09-01T08:31:28;6.38;;;1.20;;
60026;SDS011;45891;53.006;6.512;2022-09-01T08:33:54;6.65;;;1.45;;
60026;SDS011;45891;53.006;6.512;2022-09-01T08:36:20;5.28;;;1.30;;
60026;SDS011;45891;53.006;6.512;2022-09-01T08:38:46;7.22;;;1.60;;
60026;SDS011;45891;53.006;6.512;2022-09-01T08:41:18;5.25;;;1.27;;
60026;SDS011;45891;53.006;6.512;2022-09-01T08:46:45;6.03;;;1.40;;
60026;SDS011;45891;53.006;6.512;2022-09-01T08:49:19;5.72;;;1.35;;
60026;SDS011;45891;53.006;6.512;2022-09-01T08:54:53;4.78;;;1.10;;
60026;SDS011;45891;53.006;6.512;2022-09-01T08:57:38;4.63;;;1.30;;
60026;SDS011;45891;53.006;6.512;2022-09-01T09:00:07;6.40;;;1.20;;
60026;SDS011;45891;53.006;6.512;2022-09-01T09:05:07;5.07;;;1.05;;
60026;SDS011;45891;53.006;6.512;2022-09-01T09:10:25;5.45;;;1.10;;
60026;SDS011;45891;53.006;6.512;2022-09-01T09:15:51;6.47;;;1.25;;
60026;SDS011;45891;53.006;6.512;2022-09-01T09:18:32;4.50;;;1.10;;
60026;SDS011;45891;53.006;6.512;2022-09-01T09:21:18;5.78;;;1.30;;
60026;SDS011;45891;53.006;6.512;2022-09-01T09:23:53;5.15;;;1.30;;
60026;SDS011;45891;53.006;6.512;2022-09-01T09:26:30;4.72;;;1.00;;
60026;SDS011;45891;53.006;6.512;2022-09-01T09:28:57;5.78;;;1.13;;
60026;SDS011;45891;53.006;6.512;2022-09-01T09:33:54;8.65;;;1.33;;
60026;SDS011;45891;53.006;6.512;2022-09-01T09:36:43;4.43;;;1.05;;
60026;SDS011;45891;53.006;6.512;2022-09-01T09:39:12;5.60;;;1.02;;
60026;SDS011;45891;53.006;6.512;2022-09-01T09:41:41;6.93;;;1.20;;
60026;SDS011;45891;53.006;6.512;2022-09-01T09:44:24;3.75;;;0.95;;
60026;SDS011;45891;53.006;6.512;2022-09-01T09:46:54;6.55;;;1.10;;
60026;SDS011;45891;53.006;6.512;2022-09-01T09:54:35;6.25;;;1.05;;
60026;SDS011;45891;53.006;6.512;2022-09-01T09:59:42;4.53;;;0.90;;
60026;SDS011;45891;53.006;6.512;2022-09-01T10:02:33;6.40;;;0.90;;
60026;SDS011;45891;53.006;6.512;2022-09-01T10:08:10;6.78;;;1.00;;
60026;SDS011;45891;53.006;6.512;2022-09-01T10:11:04;6.43;;;0.90;;
60026;SDS011;45891;53.006;6.512;2022-09-01T10:13:32;5.43;;;1.00;;
60026;SDS011;45891;53.006;6.512;2022-09-01T10:16:02;5.07;;;1.05;;
60026;SDS011;45891;53.006;6.512;2022-09-01T10:18:37;7.90;;;1.20;;
60026;SDS011;45891;53.006;6.512;2022-09-01T10:21:20;4.40;;;0.95;;
60026;SDS011;45891;53.006;6.512;2022-09-01T10:23:50;4.20;;;0.70;;
60026;SDS011;45891;53.006;6.512;2022-09-01T10:26:18;3.67;;;0.80;;
60026;SDS011;45891;53.006;6.512;2022-09-01T10:29:14;5.93;;;1.00;;
60026;SDS011;45891;53.006;6.512;2022-09-01T10:31:46;3.42;;;0.75;;
60026;SDS011;45891;53.006;6.512;2022-09-01T10:34:15;4.53;;;0.80;;
60026;SDS011;45891;53.006;6.512;2022-09-01T10:36:44;3.95;;;0.82;;
60026;SDS011;45891;53.006;6.512;2022-09-01T10:39:13;4.68;;;1.00;;
60026;SDS011;45891;53.006;6.512;2022-09-01T10:44:08;3.15;;;0.90;;
60026;SDS011;45891;53.006;6.512;2022-09-01T10:46:46;4.30;;;0.90;;
60026;SDS011;45891;53.006;6.512;2022-09-01T10:49:21;3.85;;;0.80;;
60026;SDS011;45891;53.006;6.512;2022-09-01T10:51:54;5.10;;;0.88;;
60026;SDS011;45891;53.006;6.512;2022-09-01T10:57:06;5.85;;;0.90;;
60026;SDS011;45891;53.006;6.512;2022-09-01T10:59:34;3.70;;;0.70;;
60026;SDS011;45891;53.006;6.512;2022-09-01T11:07:02;4.63;;;0.80;;
60026;SDS011;45891;53.006;6.512;2022-09-01T11:09:32;3.90;;;0.77;;
60026;SDS011;45891;53.006;6.512;2022-09-01T11:17:20;3.83;;;0.80;;
60026;SDS011;45891;53.006;6.512;2022-09-01T11:20:01;4.47;;;0.80;;
60026;SDS011;45891;53.006;6.512;2022-09-01T11:22:39;2.30;;;0.75;;
60026;SDS011;45891;53.006;6.512;2022-09-01T11:30:23;3.85;;;0.90;;
60026;SDS011;45891;53.006;6.512;2022-09-01T11:32:56;5.20;;;1.05;;
60026;SDS011;45891;53.006;6.512;2022-09-01T11:35:38;2.80;;;0.90;;
60026;SDS011;45891;53.006;6.512;2022-09-01T11:38:05;3.78;;;0.90;;
60026;SDS011;45891;53.006;6.512;2022-09-01T11:40:34;4.55;;;0.80;;
60026;SDS011;45891;53.006;6.512;2022-09-01T11:43:03;4.97;;;0.98;;
60026;SDS011;45891;53.006;6.512;2022-09-01T11:45:36;4.45;;;0.90;;
60026;SDS011;45891;53.006;6.512;2022-09-01T11:48:15;3.83;;;0.90;;
60026;SDS011;45891;53.006;6.512;2022-09-01T11:50:41;2.42;;;0.65;;
60026;SDS011;45891;53.006;6.512;2022-09-01T11:53:09;6.40;;;0.90;;
60026;SDS011;45891;53.006;6.512;2022-09-01T11:55:42;2.78;;;0.65;;
60026;SDS011;45891;53.006;6.512;2022-09-01T12:00:56;5.18;;;0.80;;
60026;SDS011;45891;53.006;6.512;2022-09-01T12:03:35;4.93;;;0.80;;
60026;SDS011;45891;53.006;6.512;2022-09-01T12:06:03;3.70;;;0.82;;
60026;SDS011;45891;53.006;6.512;2022-09-01T12:08:31;6.80;;;0.90;;
60026;SDS011;45891;53.006;6.512;2022-09-01T12:11:02;4.07;;;0.90;;
60026;SDS011;45891;53.006;6.512;2022-09-01T12:13:30;4.10;;;0.90;;
60026;SDS011;45891;53.006;6.512;2022-09-01T12:15:58;5.28;;;0.90;;
60026;SDS011;45891;53.006;6.512;2022-09-01T12:18:27;5.60;;;0.90;;
60026;SDS011;45891;53.006;6.512;2022-09-01T12:21:00;4.47;;;0.75;;
60026;SDS011;45891;53.006;6.512;2022-09-01T12:28:36;4.60;;;0.70;;
60026;SDS011;45891;53.006;6.512;2022-09-01T12:33:41;4.88;;;0.90;;
60026;SDS011;45891;53.006;6.512;2022-09-01T12:36:27;2.35;;;0.70;;
60026;SDS011;45891;53.006;6.512;2022-09-01T12:41:46;5.57;;;0.95;;
60026;SDS011;45891;53.006;6.512;2022-09-01T12:45:07;4.38;;;0.88;;
60026;SDS011;45891;53.006;6.512;2022-09-01T12:52:54;3.58;;;0.80;;
60026;SDS011;45891;53.006;6.512;2022-09-01T12:55:24;3.42;;;0.80;;
60026;SDS011;45891;53.006;6.512;2022-09-01T12:57:59;6.05;;;0.90;;
60026;SDS011;45891;53.006;6.512;2022-09-01T13:00:31;3.20;;;0.80;;
60026;SDS011;45891;53.006;6.512;2022-09-01T13:05:36;3.80;;;0.82;;
60026;SDS011;45891;53.006;6.512;2022-09-01T13:10:38;3.88;;;0.80;;
60026;SDS011;45891;53.006;6.512;2022-09-01T13:13:10;11.18;;;1.20;;
60026;SDS011;45891;53.006;6.512;2022-09-01T13:15:39;8.38;;;1.13;;
60026;SDS011;45891;53.006;6.512;2022-09-01T13:18:08;7.30;;;0.90;;
60026;SDS011;45891;53.006;6.512;2022-09-01T13:20:34;4.63;;;0.80;;
60026;SDS011;45891;53.006;6.512;2022-09-01T13:23:01;3.92;;;0.90;;
60026;SDS011;45891;53.006;6.512;2022-09-01T13:25:27;4.68;;;0.90;;
60026;SDS011;45891;53.006;6.512;2022-09-01T13:27:53;3.83;;;0.90;;
60026;SDS011;45891;53.006;6.512;2022-09-01T13:30:21;3.97;;;0.80;;
60026;SDS011;45891;53.006;6.512;2022-09-01T13:32:49;5.25;;;0.90;;
60026;SDS011;45891;53.006;6.512;2022-09-01T13:35:17;4.25;;;0.80;;
60026;SDS011;45891;53.006;6.512;2022-09-01T13:37:46;4.03;;;0.80;;
60026;SDS011;45891;53.006;6.512;2022-09-01T13:40:13;4.10;;;0.90;;
60026;SDS011;45891;53.006;6.512;2022-09-01T13:42:42;6.07;;;0.80;;
60026;SDS011;45891;53.006;6.512;2022-09-01T13:45:13;3.78;;;0.90;;
60026;SDS011;45891;53.006;6.512;2022-09-01T13:47:42;2.42;;;0.70;;
60026;SDS011;45891;53.006;6.512;2022-09-01T13:50:11;4.68;;;0.90;;
60026;SDS011;45891;53.006;6.512;2022-09-01T13:52:39;8.45;;;0.98;;
60026;SDS011;45891;53.006;6.512;2022-09-01T13:55:11;4.23;;;0.90;;
60026;SDS011;45891;53.006;6.512;2022-09-01T13:57:39;4.05;;;0.88;;
60026;SDS011;45891;53.006;6.512;2022-09-01T14:00:07;4.60;;;0.80;;
60026;SDS011;45891;53.006;6.512;2022-09-01T14:02:37;5.20;;;1.05;;
60026;SDS011;45891;53.006;6.512;2022-09-01T14:05:04;2.97;;;0.73;;
60026;SDS011;45891;53.006;6.512;2022-09-01T14:07:31;4.25;;;0.90;;
60026;SDS011;45891;53.006;6.512;2022-09-01T14:09:57;4.20;;;1.05;;
60026;SDS011;45891;53.006;6.512;2022-09-01T14:12:24;3.90;;;0.80;;
60026;SDS011;45891;53.006;6.512;2022-09-01T14:14:50;4.75;;;0.90;;
60026;SDS011;45891;53.006;6.512;2022-09-01T14:17:17;5.30;;;0.82;;
60026;SDS011;45891;53.006;6.512;2022-09-01T14:19:47;4.60;;;0.90;;
60026;SDS011;45891;53.006;6.512;2022-09-01T14:22:15;3.33;;;0.75;;
60026;SDS011;45891;53.006;6.512;2022-09-01T14:24:41;4.47;;;0.90;;
60026;SDS011;45891;53.006;6.512;2022-09-01T14:27:08;5.10;;;0.82;;
60026;SDS011;45891;53.006;6.512;2022-09-01T14:29:35;3.75;;;0.80;;
60026;SDS011;45891;53.006;6.512;2022-09-01T14:32:02;4.45;;;1.10;;
60026;SDS011;45891;53.006;6.512;2022-09-01T14:34:28;5.43;;;1.00;;
60026;SDS011;45891;53.006;6.512;2022-09-01T14:36:55;4.93;;;0.90;;
60026;SDS011;45891;53.006;6.512;2022-09-01T14:39:22;3.55;;;0.90;;
60026;SDS011;45891;53.006;6.512;2022-09-01T14:41:49;4.40;;;0.80;;
60026;SDS011;45891;53.006;6.512;2022-09-01T14:44:15;5.55;;;0.95;;
60026;SDS011;45891;53.006;6.512;2022-09-01T14:46:41;7.13;;;0.80;;
60026;SDS011;45891;53.006;6.512;2022-09-01T14:49:08;4.65;;;1.00;;
60026;SDS011;45891;53.006;6.512;2022-09-01T14:51:35;4.32;;;0.90;;
60026;SDS011;45891;53.006;6.512;2022-09-01T14:54:03;5.03;;;0.98;;
60026;SDS011;45891;53.006;6.512;2022-09-01T14:56:29;3.75;;;0.90;;
60026;SDS011;45891;53.006;6.512;2022-09-01T14:58:55;6.20;;;1.10;;
60026;SDS011;45891;53.006;6.512;2022-09-01T15:01:25;6.67;;;0.97;;
60026;SDS011;45891;53.006;6.512;2022-09-01T15:03:52;4.57;;;1.02;;
60026;SDS011;45891;53.006;6.512;2022-09-01T15:06:19;5.78;;;1.00;;
60026;SDS011;45891;53.006;6.512;2022-09-01T15:08:46;3.78;;;0.73;;
60026;SDS011;45891;53.006;6.512;2022-09-01T15:11:17;3.40;;;0.80;;
60026;SDS011;45891;53.006;6.512;2022-09-01T15:13:45;6.57;;;0.93;;
60026;SDS011;45891;53.006;6.512;2022-09-01T15:16:13;3.42;;;0.90;;
60026;SDS011;45891;53.006;6.512;2022-09-01T15:18:41;4.32;;;0.88;;
60026;SDS011;45891;53.006;6.512;2022-09-01T15:21:07;4.80;;;0.80;;
60026;SDS011;45891;53.006;6.512;2022-09-01T15:23:42;3.60;;;0.75;;
60026;SDS011;45891;53.006;6.512;2022-09-01T15:26:09;6.47;;;1.05;;
60026;SDS011;45891;53.006;6.512;2022-09-01T15:28:35;4.82;;;0.80;;
60026;SDS011;45891;53.006;6.512;2022-09-01T15:31:01;5.93;;;0.80;;
60026;SDS011;45891;53.006;6.512;2022-09-01T15:33:27;4.30;;;0.88;;
60026;SDS011;45891;53.006;6.512;2022-09-01T15:35:53;3.38;;;0.85;;
60026;SDS011;45891;53.006;6.512;2022-09-01T15:38:20;3.75;;;0.80;;
60026;SDS011;45891;53.006;6.512;2022-09-01T15:40:46;4.93;;;0.80;;
60026;SDS011;45891;53.006;6.512;2022-09-01T15:43:13;3.78;;;0.90;;
60026;SDS011;45891;53.006;6.512;2022-09-01T15:45:39;6.22;;;0.80;;
60026;SDS011;45891;53.006;6.512;2022-09-01T15:48:05;6.30;;;0.82;;
60026;SDS011;45891;53.006;6.512;2022-09-01T15:50:31;4.45;;;0.80;;
60026;SDS011;45891;53.006;6.512;2022-09-01T15:52:59;5.43;;;0.80;;
60026;SDS011;45891;53.006;6.512;2022-09-01T15:55:30;3.88;;;0.77;;
60026;SDS011;45891;53.006;6.512;2022-09-01T15:58:13;3.40;;;0.82;;
60026;SDS011;45891;53.006;6.512;2022-09-01T16:00:41;6.85;;;1.00;;
60026;SDS011;45891;53.006;6.512;2022-09-01T16:03:08;1.85;;;0.73;;
60026;SDS011;45891;53.006;6.512;2022-09-01T16:05:36;4.93;;;1.00;;
60026;SDS011;45891;53.006;6.512;2022-09-01T16:08:04;4.57;;;0.85;;
60026;SDS011;45891;53.006;6.512;2022-09-01T16:10:34;3.92;;;0.80;;
60026;SDS011;45891;53.006;6.512;2022-09-01T16:13:02;5.63;;;1.00;;
60026;SDS011;45891;53.006;6.512;2022-09-01T16:15:29;4.53;;;0.90;;
60026;SDS011;45891;53.006;6.512;2022-09-01T16:20:38;4.55;;;0.90;;
60026;SDS011;45891;53.006;6.512;2022-09-01T16:23:15;4.85;;;0.90;;
60026;SDS011;45891;53.006;6.512;2022-09-01T16:25:43;4.78;;;0.80;;